Terminal Aerodrome Forecast
Issued by NWS

Home | Current Version | Previous Version | Text Only | Print | Product List | Glossary On
Versions: 1 2 3 4 5 6 7 8 9 10 11 12 13 14 15 16 17 18
000
FTUS44 KLZK 281400 AAB
TAFHRO
TAF AMD
KHRO 281446Z 2815/0112 11007KT 4SM -SN SCT020 OVC040
      TEMPO 2815/2818 1SM -SN BR BKN020
     FM281800 12009KT 3SM -SN BR OVC020
     FM010100 11007KT 5SM -FZRA BKN015 OVC035=

USA.gov is the U.S. government's official web portal to all federal, state and local government web resources and services.